sensor_id;sensor_type;location;lat;lon;timestamp;temperature;humidity
75296;DHT22;64126;44.738;37.804;2022-10-16T00:01:53;-2.46;118.99
75296;DHT22;64126;44.738;37.804;2022-10-16T00:04:27;-2.56;118.99
75296;DHT22;64126;44.738;37.804;2022-10-16T00:07:01;-2.47;118.99
75296;DHT22;64126;44.738;37.804;2022-10-16T00:09:35;-2.46;118.99
75296;DHT22;64126;44.738;37.804;2022-10-16T00:12:09;-2.38;118.99
75296;DHT22;64126;44.738;37.804;2022-10-16T00:14:43;-2.39;118.99
75296;DHT22;64126;44.738;37.804;2022-10-16T00:17:17;-2.33;118.99
75296;DHT22;64126;44.738;37.804;2022-10-16T00:19:54;-2.28;118.99
75296;DHT22;64126;44.738;37.804;2022-10-16T00:22:46;-2.22;118.99
75296;DHT22;64126;44.738;37.804;2022-10-16T00:25:20;-2.22;118.99
75296;DHT22;64126;44.738;37.804;2022-10-16T00:27:54;-2.07;118.99
75296;DHT22;64126;44.738;37.804;2022-10-16T00:30:28;-2.08;118.99
75296;DHT22;64126;44.738;37.804;2022-10-16T00:33:02;-2.17;118.99
75296;DHT22;64126;44.738;37.804;2022-10-16T00:35:36;-2.22;118.99
75296;DHT22;64126;44.738;37.804;2022-10-16T00:38:10;-2.31;118.99
75296;DHT22;64126;44.738;37.804;2022-10-16T00:40:44;-2.28;118.99
75296;DHT22;64126;44.738;37.804;2022-10-16T00:43:41;-2.34;118.99
75296;DHT22;64126;44.738;37.804;2022-10-16T00:46:39;-2.41;118.99
75296;DHT22;64126;44.738;37.804;2022-10-16T00:49:16;-2.36;118.99
75296;DHT22;64126;44.738;37.804;2022-10-16T00:51:53;-2.30;118.99
75296;DHT22;64126;44.738;37.804;2022-10-16T00:54:29;-2.23;118.99
75296;DHT22;64126;44.738;37.804;2022-10-16T00:57:06;-2.21;118.99
75296;DHT22;64126;44.738;37.804;2022-10-16T00:59:41;-2.12;118.99
75296;DHT22;64126;44.738;37.804;2022-10-16T01:02:16;-2.09;118.99
75296;DHT22;64126;44.738;37.804;2022-10-16T01:04:52;-2.06;118.99
75296;DHT22;64126;44.738;37.804;2022-10-16T01:07:47;-2.02;118.99
75296;DHT22;64126;44.738;37.804;2022-10-16T01:13:24;-2.02;118.99
75296;DHT22;64126;44.738;37.804;2022-10-16T01:16:22;-2.12;118.99
75296;DHT22;64126;44.738;37.804;2022-10-16T01:19:19;-2.10;118.99
75296;DHT22;64126;44.738;37.804;2022-10-16T01:21:55;-2.17;118.99
75296;DHT22;64126;44.738;37.804;2022-10-16T01:24:40;-2.15;118.99
75296;DHT22;64126;44.738;37.804;2022-10-16T01:27:30;-2.13;118.99
75296;DHT22;64126;44.738;37.804;2022-10-16T01:30:13;-2.16;118.99
75296;DHT22;64126;44.738;37.804;2022-10-16T01:32:57;-2.19;118.99
75296;DHT22;64126;44.738;37.804;2022-10-16T01:35:36;-2.14;118.99
75296;DHT22;64126;44.738;37.804;2022-10-16T01:41:21;-2.10;118.99
75296;DHT22;64126;44.738;37.804;2022-10-16T01:44:05;-2.10;118.99
75296;DHT22;64126;44.738;37.804;2022-10-16T01:46:44;-2.08;118.99
75296;DHT22;64126;44.738;37.804;2022-10-16T01:49:20;-2.08;118.99
75296;DHT22;64126;44.738;37.804;2022-10-16T01:51:57;-2.10;118.99
75296;DHT22;64126;44.738;37.804;2022-10-16T01:54:35;-2.06;118.99
75296;DHT22;64126;44.738;37.804;2022-10-16T01:57:12;-2.05;118.99
75296;DHT22;64126;44.738;37.804;2022-10-16T01:59:50;-2.05;118.99
75296;DHT22;64126;44.738;37.804;2022-10-16T02:02:28;-2.06;118.99
75296;DHT22;64126;44.738;37.804;2022-10-16T02:05:05;-2.08;118.99
75296;DHT22;64126;44.738;37.804;2022-10-16T02:07:42;-2.09;118.99
75296;DHT22;64126;44.738;37.804;2022-10-16T02:10:16;-2.06;118.99
75296;DHT22;64126;44.738;37.804;2022-10-16T02:12:58;-2.04;118.99
75296;DHT22;64126;44.738;37.804;2022-10-16T02:15:53;-2.08;118.99
75296;DHT22;64126;44.738;37.804;2022-10-16T02:18:27;-2.04;118.99
75296;DHT22;64126;44.738;37.804;2022-10-16T02:21:21;-1.90;118.99
75296;DHT22;64126;44.738;37.804;2022-10-16T02:29:24;-1.92;118.99
75296;DHT22;64126;44.738;37.804;2022-10-16T02:32:01;-2.07;118.99
75296;DHT22;64126;44.738;37.804;2022-10-16T02:34:37;-2.07;118.99
75296;DHT22;64126;44.738;37.804;2022-10-16T02:37:11;-2.04;118.99
75296;DHT22;64126;44.738;37.804;2022-10-16T02:39:45;-2.03;118.99
75296;DHT22;64126;44.738;37.804;2022-10-16T02:42:19;-2.02;118.99
75296;DHT22;64126;44.738;37.804;2022-10-16T02:44:53;-1.97;118.99
75296;DHT22;64126;44.738;37.804;2022-10-16T02:47:27;-1.99;118.99
75296;DHT22;64126;44.738;37.804;2022-10-16T02:50:01;-2.03;118.99
75296;DHT22;64126;44.738;37.804;2022-10-16T02:52:35;-2.07;118.99
75296;DHT22;64126;44.738;37.804;2022-10-16T02:55:09;-2.06;118.99
75296;DHT22;64126;44.738;37.804;2022-10-16T02:57:44;-2.06;118.99
75296;DHT22;64126;44.738;37.804;2022-10-16T03:00:18;-2.04;118.99
75296;DHT22;64126;44.738;37.804;2022-10-16T03:02:51;-2.14;118.99
75296;DHT22;64126;44.738;37.804;2022-10-16T03:05:25;-2.18;118.99
75296;DHT22;64126;44.738;37.804;2022-10-16T03:07:59;-2.19;118.99
75296;DHT22;64126;44.738;37.804;2022-10-16T03:10:34;-2.08;118.99
75296;DHT22;64126;44.738;37.804;2022-10-16T03:13:08;-2.16;118.99
75296;DHT22;64126;44.738;37.804;2022-10-16T03:15:42;-2.18;118.99
75296;DHT22;64126;44.738;37.804;2022-10-16T03:18:17;-2.16;118.99
75296;DHT22;64126;44.738;37.804;2022-10-16T03:20:51;-2.13;118.99
75296;DHT22;64126;44.738;37.804;2022-10-16T03:23:24;-2.03;118.99
75296;DHT22;64126;44.738;37.804;2022-10-16T03:25:58;-1.98;118.99
75296;DHT22;64126;44.738;37.804;2022-10-16T03:28:32;-2.02;118.99
75296;DHT22;64126;44.738;37.804;2022-10-16T03:31:06;-2.15;118.99
75296;DHT22;64126;44.738;37.804;2022-10-16T03:33:41;-2.04;118.99
75296;DHT22;64126;44.738;37.804;2022-10-16T03:36:15;-2.05;118.99
75296;DHT22;64126;44.738;37.804;2022-10-16T03:38:49;-1.98;118.99
75296;DHT22;64126;44.738;37.804;2022-10-16T03:41:23;-2.06;118.99
75296;DHT22;64126;44.738;37.804;2022-10-16T03:43:57;-2.18;118.99
75296;DHT22;64126;44.738;37.804;2022-10-16T03:46:31;-2.00;118.99
75296;DHT22;64126;44.738;37.804;2022-10-16T03:49:04;-1.91;118.99
75296;DHT22;64126;44.738;37.804;2022-10-16T03:51:39;-1.93;118.99
75296;DHT22;64126;44.738;37.804;2022-10-16T03:54:13;-1.99;118.99
75296;DHT22;64126;44.738;37.804;2022-10-16T03:56:47;-1.90;118.99
75296;DHT22;64126;44.738;37.804;2022-10-16T03:59:21;-1.93;118.99
75296;DHT22;64126;44.738;37.804;2022-10-16T04:01:55;-1.93;118.99
75296;DHT22;64126;44.738;37.804;2022-10-16T04:04:28;-1.98;118.99
75296;DHT22;64126;44.738;37.804;2022-10-16T04:07:05;-1.98;118.99
75296;DHT22;64126;44.738;37.804;2022-10-16T04:09:38;-1.92;118.99
75296;DHT22;64126;44.738;37.804;2022-10-16T04:12:12;-1.93;118.99
75296;DHT22;64126;44.738;37.804;2022-10-16T04:14:46;-1.83;118.99
75296;DHT22;64126;44.738;37.804;2022-10-16T04:17:20;-1.83;118.99
75296;DHT22;64126;44.738;37.804;2022-10-16T04:19:54;-1.83;118.99
75296;DHT22;64126;44.738;37.804;2022-10-16T04:22:28;-1.83;118.99
75296;DHT22;64126;44.738;37.804;2022-10-16T04:25:02;-1.92;118.99
75296;DHT22;64126;44.738;37.804;2022-10-16T04:27:37;-1.93;118.99
75296;DHT22;64126;44.738;37.804;2022-10-16T04:30:11;-1.97;118.99
75296;DHT22;64126;44.738;37.804;2022-10-16T04:32:50;-1.86;118.99
75296;DHT22;64126;44.738;37.804;2022-10-16T04:35:24;-1.79;118.99
75296;DHT22;64126;44.738;37.804;2022-10-16T04:37:58;-1.75;118.99
75296;DHT22;64126;44.738;37.804;2022-10-16T04:40:32;-1.64;118.99
75296;DHT22;64126;44.738;37.804;2022-10-16T04:43:06;-1.61;118.99
75296;DHT22;64126;44.738;37.804;2022-10-16T04:45:40;-1.50;118.99
75296;DHT22;64126;44.738;37.804;2022-10-16T04:48:14;-1.33;118.99
75296;DHT22;64126;44.738;37.804;2022-10-16T04:50:48;-1.27;118.99
75296;DHT22;64126;44.738;37.804;2022-10-16T04:53:22;-1.16;118.99
75296;DHT22;64126;44.738;37.804;2022-10-16T04:55:56;-1.05;118.99
75296;DHT22;64126;44.738;37.804;2022-10-16T04:58:30;-0.99;118.99
75296;DHT22;64126;44.738;37.804;2022-10-16T05:01:04;-0.89;118.99
75296;DHT22;64126;44.738;37.804;2022-10-16T05:03:38;-0.76;118.99
75296;DHT22;64126;44.738;37.804;2022-10-16T05:06:12;-0.73;118.99
75296;DHT22;64126;44.738;37.804;2022-10-16T05:08:46;-0.65;118.99
75296;DHT22;64126;44.738;37.804;2022-10-16T05:11:19;-0.59;118.99
75296;DHT22;64126;44.738;37.804;2022-10-16T05:13:53;-0.44;118.99
75296;DHT22;64126;44.738;37.804;2022-10-16T05:16:27;-0.34;118.99
75296;DHT22;64126;44.738;37.804;2022-10-16T05:19:01;-0.14;118.99
75296;DHT22;64126;44.738;37.804;2022-10-16T05:21:55;0.05;118.99
75296;DHT22;64126;44.738;37.804;2022-10-16T05:24:29;0.16;118.99
75296;DHT22;64126;44.738;37.804;2022-10-16T05:27:02;0.24;118.99
75296;DHT22;64126;44.738;37.804;2022-10-16T05:29:37;0.37;118.99
75296;DHT22;64126;44.738;37.804;2022-10-16T05:32:10;0.47;118.99
75296;DHT22;64126;44.738;37.804;2022-10-16T05:34:45;0.57;118.99
75296;DHT22;64126;44.738;37.804;2022-10-16T05:37:19;0.58;118.99
75296;DHT22;64126;44.738;37.804;2022-10-16T05:39:53;0.66;118.99
75296;DHT22;64126;44.738;37.804;2022-10-16T05:42:27;0.76;118.99
75296;DHT22;64126;44.738;37.804;2022-10-16T05:45:02;0.87;118.99
75296;DHT22;64126;44.738;37.804;2022-10-16T05:47:36;1.01;118.99
75296;DHT22;64126;44.738;37.804;2022-10-16T05:50:10;1.14;118.99
75296;DHT22;64126;44.738;37.804;2022-10-16T05:52:43;0.93;118.99
75296;DHT22;64126;44.738;37.804;2022-10-16T05:55:18;1.18;118.99
75296;DHT22;64126;44.738;37.804;2022-10-16T05:57:54;1.31;118.99
75296;DHT22;64126;44.738;37.804;2022-10-16T06:00:29;1.49;118.99
75296;DHT22;64126;44.738;37.804;2022-10-16T06:03:03;1.56;118.99
75296;DHT22;64126;44.738;37.804;2022-10-16T06:05:38;1.63;118.99
75296;DHT22;64126;44.738;37.804;2022-10-16T06:08:12;1.83;118.99
75296;DHT22;64126;44.738;37.804;2022-10-16T06:10:46;1.94;118.99
75296;DHT22;64126;44.738;37.804;2022-10-16T06:13:20;2.25;118.99
75296;DHT22;64126;44.738;37.804;2022-10-16T06:15:57;2.59;118.99
75296;DHT22;64126;44.738;37.804;2022-10-16T06:18:31;3.02;118.99
75296;DHT22;64126;44.738;37.804;2022-10-16T06:21:16;3.15;118.99
75296;DHT22;64126;44.738;37.804;2022-10-16T06:23:51;3.42;118.99
75296;DHT22;64126;44.738;37.804;2022-10-16T06:26:27;3.77;118.99
75296;DHT22;64126;44.738;37.804;2022-10-16T06:29:01;3.87;118.99
75296;DHT22;64126;44.738;37.804;2022-10-16T06:31:35;4.04;118.99
75296;DHT22;64126;44.738;37.804;2022-10-16T06:34:10;4.30;118.99
75296;DHT22;64126;44.738;37.804;2022-10-16T06:36:44;4.33;118.99
75296;DHT22;64126;44.738;37.804;2022-10-16T06:39:18;4.41;118.99
75296;DHT22;64126;44.738;37.804;2022-10-16T06:41:52;4.32;118.99
75296;DHT22;64126;44.738;37.804;2022-10-16T06:44:30;4.47;118.99
75296;DHT22;64126;44.738;37.804;2022-10-16T06:47:04;4.51;118.99
75296;DHT22;64126;44.738;37.804;2022-10-16T06:49:37;4.63;118.99
75296;DHT22;64126;44.738;37.804;2022-10-16T06:52:11;4.79;118.99
75296;DHT22;64126;44.738;37.804;2022-10-16T06:54:45;4.86;118.99
75296;DHT22;64126;44.738;37.804;2022-10-16T06:57:19;4.77;118.99
75296;DHT22;64126;44.738;37.804;2022-10-16T06:59:54;4.97;118.99
75296;DHT22;64126;44.738;37.804;2022-10-16T07:02:28;5.32;118.99
75296;DHT22;64126;44.738;37.804;2022-10-16T07:05:02;5.46;118.99
75296;DHT22;64126;44.738;37.804;2022-10-16T07:07:36;5.62;118.99
75296;DHT22;64126;44.738;37.804;2022-10-16T07:10:11;6.07;118.99
75296;DHT22;64126;44.738;37.804;2022-10-16T07:12:45;6.02;118.99
75296;DHT22;64126;44.738;37.804;2022-10-16T07:15:18;5.95;118.99
75296;DHT22;64126;44.738;37.804;2022-10-16T07:17:52;5.65;118.99
75296;DHT22;64126;44.738;37.804;2022-10-16T07:20:26;5.46;118.99
75296;DHT22;64126;44.738;37.804;2022-10-16T07:23:00;5.43;118.99
75296;DHT22;64126;44.738;37.804;2022-10-16T07:25:34;5.67;118.99
75296;DHT22;64126;44.738;37.804;2022-10-16T07:28:08;6.11;118.99
75296;DHT22;64126;44.738;37.804;2022-10-16T07:30:43;6.53;118.99
75296;DHT22;64126;44.738;37.804;2022-10-16T07:33:17;6.89;118.99
75296;DHT22;64126;44.738;37.804;2022-10-16T07:35:52;7.07;118.99
75296;DHT22;64126;44.738;37.804;2022-10-16T07:38:27;6.71;118.99
75296;DHT22;64126;44.738;37.804;2022-10-16T07:41:06;6.69;118.99
75296;DHT22;64126;44.738;37.804;2022-10-16T07:43:50;6.57;118.99
75296;DHT22;64126;44.738;37.804;2022-10-16T07:46:24;6.57;118.99
75296;DHT22;64126;44.738;37.804;2022-10-16T07:48:58;6.50;118.99
75296;DHT22;64126;44.738;37.804;2022-10-16T07:51:32;6.68;118.99
75296;DHT22;64126;44.738;37.804;2022-10-16T07:54:09;6.71;118.99
75296;DHT22;64126;44.738;37.804;2022-10-16T07:56:44;7.11;118.99
75296;DHT22;64126;44.738;37.804;2022-10-16T07:59:18;7.03;118.99
75296;DHT22;64126;44.738;37.804;2022-10-16T08:01:52;7.29;118.99
75296;DHT22;64126;44.738;37.804;2022-10-16T08:04:25;7.39;118.99
75296;DHT22;64126;44.738;37.804;2022-10-16T08:06:59;7.56;118.99
75296;DHT22;64126;44.738;37.804;2022-10-16T08:09:44;7.76;118.99
75296;DHT22;64126;44.738;37.804;2022-10-16T08:12:18;8.07;118.99
75296;DHT22;64126;44.738;37.804;2022-10-16T08:14:52;8.00;118.99
75296;DHT22;64126;44.738;37.804;2022-10-16T08:17:26;7.82;118.99
75296;DHT22;64126;44.738;37.804;2022-10-16T08:20:05;7.53;118.99
75296;DHT22;64126;44.738;37.804;2022-10-16T08:22:40;7.54;118.99
75296;DHT22;64126;44.738;37.804;2022-10-16T08:25:13;7.67;118.99
75296;DHT22;64126;44.738;37.804;2022-10-16T08:27:48;7.69;118.99
75296;DHT22;64126;44.738;37.804;2022-10-16T08:30:23;8.04;118.99
75296;DHT22;64126;44.738;37.804;2022-10-16T08:32:57;8.16;118.99
75296;DHT22;64126;44.738;37.804;2022-10-16T08:35:32;8.35;118.99
75296;DHT22;64126;44.738;37.804;2022-10-16T08:38:06;8.48;118.99
75296;DHT22;64126;44.738;37.804;2022-10-16T08:40:42;8.62;118.99
75296;DHT22;64126;44.738;37.804;2022-10-16T08:46:36;9.11;118.99
75296;DHT22;64126;44.738;37.804;2022-10-16T08:49:13;9.19;118.99
75296;DHT22;64126;44.738;37.804;2022-10-16T08:51:49;8.81;118.99
75296;DHT22;64126;44.738;37.804;2022-10-16T08:54:37;8.65;118.99
75296;DHT22;64126;44.738;37.804;2022-10-16T08:57:23;8.66;118.99
75296;DHT22;64126;44.738;37.804;2022-10-16T09:00:05;8.62;118.99
75296;DHT22;64126;44.738;37.804;2022-10-16T09:02:49;8.82;118.99
75296;DHT22;64126;44.738;37.804;2022-10-16T09:08:25;9.15;118.99
75296;DHT22;64126;44.738;37.804;2022-10-16T09:16:48;9.21;118.99
75296;DHT22;64126;44.738;37.804;2022-10-16T09:22:34;9.04;118.99
75296;DHT22;64126;44.738;37.804;2022-10-16T09:25:15;8.98;118.99
75296;DHT22;64126;44.738;37.804;2022-10-16T09:27:52;8.76;118.99
75296;DHT22;64126;44.738;37.804;2022-10-16T09:30:28;8.74;118.99
75296;DHT22;64126;44.738;37.804;2022-10-16T09:33:06;8.80;118.99
75296;DHT22;64126;44.738;37.804;2022-10-16T09:35:42;8.57;118.99
75296;DHT22;64126;44.738;37.804;2022-10-16T09:40:57;8.97;118.99
75296;DHT22;64126;44.738;37.804;2022-10-16T09:43:39;9.16;118.99
75296;DHT22;64126;44.738;37.804;2022-10-16T09:49:22;9.35;118.99
75296;DHT22;64126;44.738;37.804;2022-10-16T09:55:12;9.63;118.99
75296;DHT22;64126;44.738;37.804;2022-10-16T09:57:51;9.89;118.99
75296;DHT22;64126;44.738;37.804;2022-10-16T10:00:25;9.81;118.99
75296;DHT22;64126;44.738;37.804;2022-10-16T10:03:01;9.78;118.99
75296;DHT22;64126;44.738;37.804;2022-10-16T10:05:50;9.84;118.99
75296;DHT22;64126;44.738;37.804;2022-10-16T10:08:32;9.45;118.99
75296;DHT22;64126;44.738;37.804;2022-10-16T10:11:07;9.09;118.99
75296;DHT22;64126;44.738;37.804;2022-10-16T10:13:44;8.28;118.99
75296;DHT22;64126;44.738;37.804;2022-10-16T10:16:24;8.22;118.99
75296;DHT22;64126;44.738;37.804;2022-10-16T10:19:01;8.46;118.99
75296;DHT22;64126;44.738;37.804;2022-10-16T10:21:38;8.16;118.99
75296;DHT22;64126;44.738;37.804;2022-10-16T10:24:14;7.84;118.99
75296;DHT22;64126;44.738;37.804;2022-10-16T10:27:09;7.48;118.99
75296;DHT22;64126;44.738;37.804;2022-10-16T10:35:28;7.05;118.99
75296;DHT22;64126;44.738;37.804;2022-10-16T10:43:49;6.61;118.99
75296;DHT22;64126;44.738;37.804;2022-10-16T10:55:24;6.44;118.99
75296;DHT22;64126;44.738;37.804;2022-10-16T11:01:16;6.40;118.99
75296;DHT22;64126;44.738;37.804;2022-10-16T11:04:17;6.30;118.99
75296;DHT22;64126;44.738;37.804;2022-10-16T11:07:01;6.02;118.99
75296;DHT22;64126;44.738;37.804;2022-10-16T11:09:53;5.90;118.99
75296;DHT22;64126;44.738;37.804;2022-10-16T11:12:42;5.64;118.99
75296;DHT22;64126;44.738;37.804;2022-10-16T11:15:27;5.60;118.99
75296;DHT22;64126;44.738;37.804;2022-10-16T11:18:18;5.50;118.99
75296;DHT22;64126;44.738;37.804;2022-10-16T11:20:57;5.32;118.99
75296;DHT22;64126;44.738;37.804;2022-10-16T11:23:45;5.10;118.99
75296;DHT22;64126;44.738;37.804;2022-10-16T11:26:24;5.03;118.99
75296;DHT22;64126;44.738;37.804;2022-10-16T11:29:01;4.98;118.99
75296;DHT22;64126;44.738;37.804;2022-10-16T11:31:39;4.96;118.99
75296;DHT22;64126;44.738;37.804;2022-10-16T11:34:49;4.95;118.99
75296;DHT22;64126;44.738;37.804;2022-10-16T11:37:21;4.96;118.99
75296;DHT22;64126;44.738;37.804;2022-10-16T11:40:16;4.87;118.99
75296;DHT22;64126;44.738;37.804;2022-10-16T11:43:06;4.82;118.99
75296;DHT22;64126;44.738;37.804;2022-10-16T11:45:49;4.83;118.99
75296;DHT22;64126;44.738;37.804;2022-10-16T11:48:43;4.86;118.99
75296;DHT22;64126;44.738;37.804;2022-10-16T11:51:29;4.78;118.99
75296;DHT22;64126;44.738;37.804;2022-10-16T11:54:28;4.79;118.99
75296;DHT22;64126;44.738;37.804;2022-10-16T11:57:14;4.64;118.99
75296;DHT22;64126;44.738;37.804;2022-10-16T12:08:12;4.35;118.99
75296;DHT22;64126;44.738;37.804;2022-10-16T12:10:47;4.31;118.99
75296;DHT22;64126;44.738;37.804;2022-10-16T12:13:34;4.31;118.99
75296;DHT22;64126;44.738;37.804;2022-10-16T12:18:47;4.24;118.99
75296;DHT22;64126;44.738;37.804;2022-10-16T12:21:30;4.29;118.99
75296;DHT22;64126;44.738;37.804;2022-10-16T12:27:29;4.38;118.99
75296;DHT22;64126;44.738;37.804;2022-10-16T12:30:05;4.19;118.99
75296;DHT22;64126;44.738;37.804;2022-10-16T12:32:40;4.20;118.99
75296;DHT22;64126;44.738;37.804;2022-10-16T12:35:26;4.13;118.99
75296;DHT22;64126;44.738;37.804;2022-10-16T12:41:06;4.20;118.99
75296;DHT22;64126;44.738;37.804;2022-10-16T12:43:50;4.27;118.99
75296;DHT22;64126;44.738;37.804;2022-10-16T12:51:55;4.04;118.99
75296;DHT22;64126;44.738;37.804;2022-10-16T12:54:37;4.06;118.99
75296;DHT22;64126;44.738;37.804;2022-10-16T13:00:50;4.02;118.99
75296;DHT22;64126;44.738;37.804;2022-10-16T13:06:51;3.93;118.99
75296;DHT22;64126;44.738;37.804;2022-10-16T13:15:39;3.85;118.99
75296;DHT22;64126;44.738;37.804;2022-10-16T13:18:16;3.88;118.99
75296;DHT22;64126;44.738;37.804;2022-10-16T13:24:19;3.77;118.99
75296;DHT22;64126;44.738;37.804;2022-10-16T13:27:05;3.69;118.99
75296;DHT22;64126;44.738;37.804;2022-10-16T13:29:59;3.67;118.99
75296;DHT22;64126;44.738;37.804;2022-10-16T13:32:38;3.67;118.99
75296;DHT22;64126;44.738;37.804;2022-10-16T13:35:28;3.57;118.99
75296;DHT22;64126;44.738;37.804;2022-10-16T13:38:15;3.49;118.99
75296;DHT22;64126;44.738;37.804;2022-10-16T13:43:46;3.46;118.99
75296;DHT22;64126;44.738;37.804;2022-10-16T13:46:23;3.39;118.99
75296;DHT22;64126;44.738;37.804;2022-10-16T13:49:01;3.41;118.99
75296;DHT22;64126;44.738;37.804;2022-10-16T13:51:35;3.38;118.99
75296;DHT22;64126;44.738;37.804;2022-10-16T13:54:11;3.38;118.99
75296;DHT22;64126;44.738;37.804;2022-10-16T13:56:45;3.33;118.99
75296;DHT22;64126;44.738;37.804;2022-10-16T14:01:57;3.26;118.99
75296;DHT22;64126;44.738;37.804;2022-10-16T14:04:33;3.23;118.99
75296;DHT22;64126;44.738;37.804;2022-10-16T14:07:19;3.23;118.99
75296;DHT22;64126;44.738;37.804;2022-10-16T14:09:54;3.21;118.99
75296;DHT22;64126;44.738;37.804;2022-10-16T14:12:28;3.17;118.99
75296;DHT22;64126;44.738;37.804;2022-10-16T14:15:03;3.11;118.99
75296;DHT22;64126;44.738;37.804;2022-10-16T14:17:44;3.09;118.99
75296;DHT22;64126;44.738;37.804;2022-10-16T14:20:31;3.08;118.99
75296;DHT22;64126;44.738;37.804;2022-10-16T14:23:29;3.00;118.99
75296;DHT22;64126;44.738;37.804;2022-10-16T14:26:27;2.96;118.99
75296;DHT22;64126;44.738;37.804;2022-10-16T14:29:14;2.89;118.99
75296;DHT22;64126;44.738;37.804;2022-10-16T14:32:04;2.87;118.99
75296;DHT22;64126;44.738;37.804;2022-10-16T14:34:38;2.80;118.99
75296;DHT22;64126;44.738;37.804;2022-10-16T14:37:25;2.78;118.99
75296;DHT22;64126;44.738;37.804;2022-10-16T14:40:00;2.75;118.99
75296;DHT22;64126;44.738;37.804;2022-10-16T14:42:35;2.71;118.99
75296;DHT22;64126;44.738;37.804;2022-10-16T14:45:10;2.65;118.99
75296;DHT22;64126;44.738;37.804;2022-10-16T14:48:00;2.61;118.99
75296;DHT22;64126;44.738;37.804;2022-10-16T14:50:35;2.64;118.99
75296;DHT22;64126;44.738;37.804;2022-10-16T14:53:11;2.61;118.99
75296;DHT22;64126;44.738;37.804;2022-10-16T14:55:46;2.56;118.99
75296;DHT22;64126;44.738;37.804;2022-10-16T14:58:22;2.54;118.99
75296;DHT22;64126;44.738;37.804;2022-10-16T15:00:58;2.50;118.99
75296;DHT22;64126;44.738;37.804;2022-10-16T15:03:32;2.52;118.99
75296;DHT22;64126;44.738;37.804;2022-10-16T15:06:13;2.50;118.99
75296;DHT22;64126;44.738;37.804;2022-10-16T15:08:47;2.44;118.99
75296;DHT22;64126;44.738;37.804;2022-10-16T15:11:21;2.43;118.99
75296;DHT22;64126;44.738;37.804;2022-10-16T15:13:55;2.41;118.99
75296;DHT22;64126;44.738;37.804;2022-10-16T15:16:30;2.37;118.99
75296;DHT22;64126;44.738;37.804;2022-10-16T15:19:04;2.31;118.99
75296;DHT22;64126;44.738;37.804;2022-10-16T15:21:38;2.27;118.99
75296;DHT22;64126;44.738;37.804;2022-10-16T15:24:13;2.25;118.99
75296;DHT22;64126;44.738;37.804;2022-10-16T15:26:48;2.26;118.99
75296;DHT22;64126;44.738;37.804;2022-10-16T15:29:23;2.26;118.99
75296;DHT22;64126;44.738;37.804;2022-10-16T15:31:57;2.16;118.99
75296;DHT22;64126;44.738;37.804;2022-10-16T15:34:31;2.20;118.99
75296;DHT22;64126;44.738;37.804;2022-10-16T15:37:05;2.15;118.99
75296;DHT22;64126;44.738;37.804;2022-10-16T15:39:39;2.13;118.99
75296;DHT22;64126;44.738;37.804;2022-10-16T15:42:14;2.12;118.99
75296;DHT22;64126;44.738;37.804;2022-10-16T15:44:50;2.06;118.99
75296;DHT22;64126;44.738;37.804;2022-10-16T15:47:24;1.97;118.99
75296;DHT22;64126;44.738;37.804;2022-10-16T15:49:58;1.99;118.99
75296;DHT22;64126;44.738;37.804;2022-10-16T15:52:34;1.98;118.99
75296;DHT22;64126;44.738;37.804;2022-10-16T15:55:12;1.96;118.99
75296;DHT22;64126;44.738;37.804;2022-10-16T15:57:47;1.90;118.99
75296;DHT22;64126;44.738;37.804;2022-10-16T16:00:21;1.94;118.99
75296;DHT22;64126;44.738;37.804;2022-10-16T16:02:56;1.90;118.99
75296;DHT22;64126;44.738;37.804;2022-10-16T16:05:31;1.87;118.99
75296;DHT22;64126;44.738;37.804;2022-10-16T16:08:07;1.91;118.99
75296;DHT22;64126;44.738;37.804;2022-10-16T16:10:42;2.05;118.99
75296;DHT22;64126;44.738;37.804;2022-10-16T16:13:16;1.88;118.99
75296;DHT22;64126;44.738;37.804;2022-10-16T16:15:51;1.78;118.99
75296;DHT22;64126;44.738;37.804;2022-10-16T16:18:25;1.76;118.99
75296;DHT22;64126;44.738;37.804;2022-10-16T16:21:00;1.70;118.99
75296;DHT22;64126;44.738;37.804;2022-10-16T16:23:35;1.72;118.99
75296;DHT22;64126;44.738;37.804;2022-10-16T16:26:23;1.86;118.99
75296;DHT22;64126;44.738;37.804;2022-10-16T16:29:00;1.65;118.99
75296;DHT22;64126;44.738;37.804;2022-10-16T16:31:36;1.83;118.99
75296;DHT22;64126;44.738;37.804;2022-10-16T16:34:10;1.66;118.99
75296;DHT22;64126;44.738;37.804;2022-10-16T16:36:44;1.65;118.99
75296;DHT22;64126;44.738;37.804;2022-10-16T16:39:19;1.55;118.99
75296;DHT22;64126;44.738;37.804;2022-10-16T16:41:55;1.51;118.99
75296;DHT22;64126;44.738;37.804;2022-10-16T16:44:33;1.53;118.99
75296;DHT22;64126;44.738;37.804;2022-10-16T16:47:09;1.46;118.99
75296;DHT22;64126;44.738;37.804;2022-10-16T16:49:44;1.46;118.99
75296;DHT22;64126;44.738;37.804;2022-10-16T16:52:20;1.42;118.99
75296;DHT22;64126;44.738;37.804;2022-10-16T16:54:54;1.45;118.99
75296;DHT22;64126;44.738;37.804;2022-10-16T16:57:31;1.46;118.99
75296;DHT22;64126;44.738;37.804;2022-10-16T17:00:06;1.42;118.99
75296;DHT22;64126;44.738;37.804;2022-10-16T17:02:42;1.38;118.99
75296;DHT22;64126;44.738;37.804;2022-10-16T17:05:19;1.37;118.99
75296;DHT22;64126;44.738;37.804;2022-10-16T17:07:54;1.38;118.99
75296;DHT22;64126;44.738;37.804;2022-10-16T17:10:28;1.37;118.99
75296;DHT22;64126;44.738;37.804;2022-10-16T17:13:02;1.34;118.99
75296;DHT22;64126;44.738;37.804;2022-10-16T17:15:37;1.31;118.99
75296;DHT22;64126;44.738;37.804;2022-10-16T17:18:12;1.39;118.99
75296;DHT22;64126;44.738;37.804;2022-10-16T17:20:54;1.37;118.99
75296;DHT22;64126;44.738;37.804;2022-10-16T17:23:28;1.36;118.99
75296;DHT22;64126;44.738;37.804;2022-10-16T17:26:13;1.33;118.99
75296;DHT22;64126;44.738;37.804;2022-10-16T17:28:55;1.31;118.99
75296;DHT22;64126;44.738;37.804;2022-10-16T17:31:35;1.38;118.99
75296;DHT22;64126;44.738;37.804;2022-10-16T17:34:10;1.27;118.99
75296;DHT22;64126;44.738;37.804;2022-10-16T17:36:45;1.20;118.99
75296;DHT22;64126;44.738;37.804;2022-10-16T17:39:20;1.10;118.99
75296;DHT22;64126;44.738;37.804;2022-10-16T17:41:55;0.99;118.99
75296;DHT22;64126;44.738;37.804;2022-10-16T17:44:30;1.01;118.99
75296;DHT22;64126;44.738;37.804;2022-10-16T17:47:15;1.02;118.99
75296;DHT22;64126;44.738;37.804;2022-10-16T17:49:58;0.94;118.99
75296;DHT22;64126;44.738;37.804;2022-10-16T17:52:36;0.92;118.99
75296;DHT22;64126;44.738;37.804;2022-10-16T17:55:16;0.90;118.99
75296;DHT22;64126;44.738;37.804;2022-10-16T17:57:51;0.91;118.99
75296;DHT22;64126;44.738;37.804;2022-10-16T18:00:27;0.94;118.99